sensor_id;sensor_type;location;lat;lon;timestamp;pressure;altitude;pressure_sealevel;temperature;humidity
74065;BME280;62421;51.412;5.432;2024-03-02T00:01:16;99710.94;;;7.82;100.00
74065;BME280;62421;51.412;5.432;2024-03-02T00:03:42;99722.47;;;7.83;100.00
74065;BME280;62421;51.412;5.432;2024-03-02T00:06:08;99771.31;;;7.85;100.00
74065;BME280;62421;51.412;5.432;2024-03-02T00:08:34;99807.06;;;7.84;100.00
74065;BME280;62421;51.412;5.432;2024-03-02T00:11:00;99793.41;;;7.75;100.00
74065;BME280;62421;51.412;5.432;2024-03-02T00:13:26;99790.38;;;7.45;100.00
74065;BME280;62421;51.412;5.432;2024-03-02T00:15:56;99797.81;;;7.15;100.00
74065;BME280;62421;51.412;5.432;2024-03-02T00:18:33;99801.25;;;7.05;100.00
74065;BME280;62421;51.412;5.432;2024-03-02T00:21:00;99807.81;;;6.88;100.00
74065;BME280;62421;51.412;5.432;2024-03-02T00:23:33;99806.78;;;6.78;100.00
74065;BME280;62421;51.412;5.432;2024-03-02T00:25:59;99803.66;;;6.71;100.00
74065;BME280;62421;51.412;5.432;2024-03-02T00:28:29;99798.66;;;6.66;100.00
74065;BME280;62421;51.412;5.432;2024-03-02T00:30:56;99799.97;;;6.61;100.00
74065;BME280;62421;51.412;5.432;2024-03-02T00:33:23;99806.34;;;6.58;100.00
74065;BME280;62421;51.412;5.432;2024-03-02T00:35:49;99810.22;;;6.54;100.00
74065;BME280;62421;51.412;5.432;2024-03-02T00:38:15;99817.31;;;6.53;100.00
74065;BME280;62421;51.412;5.432;2024-03-02T00:40:42;99814.88;;;6.50;100.00
74065;BME280;62421;51.412;5.432;2024-03-02T00:43:43;99811.25;;;6.51;100.00
74065;BME280;62421;51.412;5.432;2024-03-02T00:46:12;99810.50;;;6.49;100.00
74065;BME280;62421;51.412;5.432;2024-03-02T00:48:40;99808.91;;;6.47;100.00
74065;BME280;62421;51.412;5.432;2024-03-02T00:51:10;99812.66;;;6.44;100.00
74065;BME280;62421;51.412;5.432;2024-03-02T00:53:36;99814.47;;;6.44;100.00
74065;BME280;62421;51.412;5.432;2024-03-02T00:56:02;99814.47;;;6.44;100.00
74065;BME280;62421;51.412;5.432;2024-03-02T00:58:28;99811.91;;;6.42;100.00
74065;BME280;62421;51.412;5.432;2024-03-02T01:00:53;99814.56;;;6.42;100.00
74065;BME280;62421;51.412;5.432;2024-03-02T01:03:18;99808.47;;;6.40;100.00
74065;BME280;62421;51.412;5.432;2024-03-02T01:05:44;99809.47;;;6.39;100.00
74065;BME280;62421;51.412;5.432;2024-03-02T01:08:10;99807.81;;;6.36;100.00
74065;BME280;62421;51.412;5.432;2024-03-02T01:10:36;99812.22;;;6.38;100.00
74065;BME280;62421;51.412;5.432;2024-03-02T01:13:01;99811.38;;;6.37;100.00
74065;BME280;62421;51.412;5.432;2024-03-02T01:15:27;99811.25;;;6.39;100.00
74065;BME280;62421;51.412;5.432;2024-03-02T01:17:52;99809.56;;;6.38;100.00
74065;BME280;62421;51.412;5.432;2024-03-02T01:20:18;99810.50;;;6.36;100.00
74065;BME280;62421;51.412;5.432;2024-03-02T01:22:43;99810.41;;;6.38;100.00
74065;BME280;62421;51.412;5.432;2024-03-02T01:25:08;99825.56;;;6.38;100.00
74065;BME280;62421;51.412;5.432;2024-03-02T01:27:34;99820.22;;;6.38;100.00
74065;BME280;62421;51.412;5.432;2024-03-02T01:29:59;99818.41;;;6.38;100.00
74065;BME280;62421;51.412;5.432;2024-03-02T01:32:25;99822.78;;;6.39;100.00
74065;BME280;62421;51.412;5.432;2024-03-02T01:34:50;99823.72;;;6.38;100.00
74065;BME280;62421;51.412;5.432;2024-03-02T01:37:15;99824.56;;;6.39;100.00
74065;BME280;62421;51.412;5.432;2024-03-02T01:39:41;99821.81;;;6.40;100.00
74065;BME280;62421;51.412;5.432;2024-03-02T01:42:07;99815.63;;;6.40;100.00
74065;BME280;62421;51.412;5.432;2024-03-02T01:44:32;99823.63;;;6.40;100.00
74065;BME280;62421;51.412;5.432;2024-03-02T01:46:57;99832.47;;;6.40;100.00
74065;BME280;62421;51.412;5.432;2024-03-02T01:49:22;99826.19;;;6.41;100.00
74065;BME280;62421;51.412;5.432;2024-03-02T01:51:48;99835.03;;;6.42;100.00
74065;BME280;62421;51.412;5.432;2024-03-02T01:54:13;99829.81;;;6.40;100.00
74065;BME280;62421;51.412;5.432;2024-03-02T01:56:39;99834.28;;;6.40;100.00
74065;BME280;62421;51.412;5.432;2024-03-02T01:59:04;99831.72;;;6.38;100.00
74065;BME280;62421;51.412;5.432;2024-03-02T02:01:30;99833.44;;;6.39;100.00
74065;BME280;62421;51.412;5.432;2024-03-02T02:03:56;99822.03;;;6.37;100.00
74065;BME280;62421;51.412;5.432;2024-03-02T02:06:21;99823.06;;;6.34;100.00
74065;BME280;62421;51.412;5.432;2024-03-02T02:08:47;99834.72;;;6.33;100.00
74065;BME280;62421;51.412;5.432;2024-03-02T02:11:15;99834.06;;;6.30;100.00
74065;BME280;62421;51.412;5.432;2024-03-02T02:13:40;99824.38;;;6.29;100.00
74065;BME280;62421;51.412;5.432;2024-03-02T02:16:07;99828.94;;;6.27;100.00
74065;BME280;62421;51.412;5.432;2024-03-02T02:18:32;99822.88;;;6.25;100.00
74065;BME280;62421;51.412;5.432;2024-03-02T02:20:58;99838.13;;;6.23;100.00
74065;BME280;62421;51.412;5.432;2024-03-02T02:23:23;99828.28;;;6.23;100.00
74065;BME280;62421;51.412;5.432;2024-03-02T02:25:48;99830.22;;;6.21;100.00
74065;BME280;62421;51.412;5.432;2024-03-02T02:28:13;99817.84;;;6.20;100.00
74065;BME280;62421;51.412;5.432;2024-03-02T02:30:39;99818.94;;;6.18;100.00
74065;BME280;62421;51.412;5.432;2024-03-02T02:33:04;99809.09;;;6.18;100.00
74065;BME280;62421;51.412;5.432;2024-03-02T02:35:29;99819.03;;;6.16;100.00
74065;BME280;62421;51.412;5.432;2024-03-02T02:37:56;99807.50;;;6.15;100.00
74065;BME280;62421;51.412;5.432;2024-03-02T02:40:22;99807.59;;;6.14;100.00
74065;BME280;62421;51.412;5.432;2024-03-02T02:42:47;99820.09;;;6.13;100.00
74065;BME280;62421;51.412;5.432;2024-03-02T02:45:13;99828.09;;;6.13;100.00
74065;BME280;62421;51.412;5.432;2024-03-02T02:47:41;99836.09;;;6.13;100.00
74065;BME280;62421;51.412;5.432;2024-03-02T02:50:07;99829.03;;;6.12;100.00
74065;BME280;62421;51.412;5.432;2024-03-02T02:52:35;99820.28;;;6.10;100.00
74065;BME280;62421;51.412;5.432;2024-03-02T02:55:03;99815.06;;;6.09;100.00
74065;BME280;62421;51.412;5.432;2024-03-02T02:57:28;99830.41;;;6.05;100.00
74065;BME280;62421;51.412;5.432;2024-03-02T02:59:56;99823.34;;;6.04;100.00
74065;BME280;62421;51.412;5.432;2024-03-02T03:02:21;99827.00;;;6.03;100.00
74065;BME280;62421;51.412;5.432;2024-03-02T03:04:47;99827.00;;;6.03;100.00
74065;BME280;62421;51.412;5.432;2024-03-02T03:07:12;99832.31;;;6.03;100.00
74065;BME280;62421;51.412;5.432;2024-03-02T03:09:37;99831.47;;;6.03;100.00
74065;BME280;62421;51.412;5.432;2024-03-02T03:12:04;99825.41;;;6.01;100.00
74065;BME280;62421;51.412;5.432;2024-03-02T03:14:29;99828.06;;;6.01;100.00
74065;BME280;62421;51.412;5.432;2024-03-02T03:16:54;99832.41;;;6.02;100.00
74065;BME280;62421;51.412;5.432;2024-03-02T03:19:20;99834.22;;;6.01;100.00
74065;BME280;62421;51.412;5.432;2024-03-02T03:21:45;99834.22;;;6.01;100.00
74065;BME280;62421;51.412;5.432;2024-03-02T03:24:10;99835.22;;;6.00;100.00
74065;BME280;62421;51.412;5.432;2024-03-02T03:26:36;99831.56;;;6.01;100.00
74065;BME280;62421;51.412;5.432;2024-03-02T03:29:02;99833.25;;;6.02;100.00
74065;BME280;62421;51.412;5.432;2024-03-02T03:31:28;99833.16;;;6.04;100.00
74065;BME280;62421;51.412;5.432;2024-03-02T03:33:53;99844.69;;;6.04;100.00
74065;BME280;62421;51.412;5.432;2024-03-02T03:36:18;99859.72;;;6.05;100.00
74065;BME280;62421;51.412;5.432;2024-03-02T03:38:44;99856.22;;;6.05;100.00
74065;BME280;62421;51.412;5.432;2024-03-02T03:41:09;99855.25;;;6.06;100.00
74065;BME280;62421;51.412;5.432;2024-03-02T03:43:35;99847.16;;;6.07;100.00
74065;BME280;62421;51.412;5.432;2024-03-02T03:46:00;99853.44;;;6.06;100.00
74065;BME280;62421;51.412;5.432;2024-03-02T03:48:26;99841.06;;;6.05;100.00
74065;BME280;62421;51.412;5.432;2024-03-02T03:50:55;99842.00;;;6.04;100.00
74065;BME280;62421;51.412;5.432;2024-03-02T03:53:21;99859.72;;;6.05;100.00
74065;BME280;62421;51.412;5.432;2024-03-02T03:55:47;99841.06;;;6.05;100.00
74065;BME280;62421;51.412;5.432;2024-03-02T03:58:14;99851.81;;;6.04;100.00
74065;BME280;62421;51.412;5.432;2024-03-02T04:00:41;99849.47;;;5.99;100.00
74065;BME280;62421;51.412;5.432;2024-03-02T04:03:07;99863.88;;;5.97;100.00
74065;BME280;62421;51.412;5.432;2024-03-02T04:05:32;99849.69;;;5.96;100.00
74065;BME280;62421;51.412;5.432;2024-03-02T04:07:57;99855.13;;;5.94;100.00
74065;BME280;62421;51.412;5.432;2024-03-02T04:10:23;99856.34;;;5.89;100.00
74065;BME280;62421;51.412;5.432;2024-03-02T04:12:49;99853.97;;;5.84;100.00
74065;BME280;62421;51.412;5.432;2024-03-02T04:15:16;99861.63;;;5.76;100.00
74065;BME280;62421;51.412;5.432;2024-03-02T04:17:41;99855.09;;;5.67;100.00
74065;BME280;62421;51.412;5.432;2024-03-02T04:20:07;99852.72;;;5.63;100.00
74065;BME280;62421;51.412;5.432;2024-03-02T04:22:33;99856.34;;;5.62;100.00
74065;BME280;62421;51.412;5.432;2024-03-02T04:25:00;99859.56;;;5.67;100.00
74065;BME280;62421;51.412;5.432;2024-03-02T04:27:25;99861.91;;;5.71;100.00
74065;BME280;62421;51.412;5.432;2024-03-02T04:29:51;99846.69;;;5.73;100.00
74065;BME280;62421;51.412;5.432;2024-03-02T04:32:16;99853.53;;;5.78;100.00
74065;BME280;62421;51.412;5.432;2024-03-02T04:34:42;99857.78;;;5.80;100.00
74065;BME280;62421;51.412;5.432;2024-03-02T04:37:08;99855.13;;;5.80;100.00
74065;BME280;62421;51.412;5.432;2024-03-02T04:39:35;99853.22;;;5.82;100.00
74065;BME280;62421;51.412;5.432;2024-03-02T04:42:00;99859.31;;;5.84;100.00
74065;BME280;62421;51.412;5.432;2024-03-02T04:44:25;99849.31;;;5.88;100.00
74065;BME280;62421;51.412;5.432;2024-03-02T04:46:51;99852.59;;;5.91;100.00
74065;BME280;62421;51.412;5.432;2024-03-02T04:49:16;99856.25;;;5.90;100.00
74065;BME280;62421;51.412;5.432;2024-03-02T04:51:41;99863.25;;;5.91;100.00
74065;BME280;62421;51.412;5.432;2024-03-02T04:54:07;99857.22;;;5.89;100.00
74065;BME280;62421;51.412;5.432;2024-03-02T04:56:32;99861.78;;;5.87;100.00
74065;BME280;62421;51.412;5.432;2024-03-02T04:58:58;99865.69;;;5.82;100.00
74065;BME280;62421;51.412;5.432;2024-03-02T05:01:23;99865.44;;;5.72;100.00
74065;BME280;62421;51.412;5.432;2024-03-02T05:03:48;99863.47;;;5.61;100.00
74065;BME280;62421;51.412;5.432;2024-03-02T05:06:14;99867.69;;;5.51;100.00
74065;BME280;62421;51.412;5.432;2024-03-02T05:08:39;99874.56;;;5.41;100.00
74065;BME280;62421;51.412;5.432;2024-03-02T05:11:04;99868.03;;;5.32;100.00
74065;BME280;62421;51.412;5.432;2024-03-02T05:13:48;99882.47;;;5.28;100.00
74065;BME280;62421;51.412;5.432;2024-03-02T05:16:13;99876.84;;;5.32;100.00
74065;BME280;62421;51.412;5.432;2024-03-02T05:18:39;99878.28;;;5.38;100.00
74065;BME280;62421;51.412;5.432;2024-03-02T05:21:05;99877.91;;;5.44;100.00
74065;BME280;62421;51.412;5.432;2024-03-02T05:23:30;99876.63;;;5.50;100.00
74065;BME280;62421;51.412;5.432;2024-03-02T05:25:56;99882.63;;;5.53;100.00
74065;BME280;62421;51.412;5.432;2024-03-02T05:28:21;99889.34;;;5.59;100.00
74065;BME280;62421;51.412;5.432;2024-03-02T05:30:46;99888.31;;;5.62;100.00
74065;BME280;62421;51.412;5.432;2024-03-02T05:33:12;99898.75;;;5.65;100.00
74065;BME280;62421;51.412;5.432;2024-03-02T05:35:37;99898.56;;;5.68;100.00
74065;BME280;62421;51.412;5.432;2024-03-02T05:38:03;99905.50;;;5.70;100.00
74065;BME280;62421;51.412;5.432;2024-03-02T05:40:29;99901.88;;;5.71;100.00
74065;BME280;62421;51.412;5.432;2024-03-02T05:42:55;99900.81;;;5.74;100.00
74065;BME280;62421;51.412;5.432;2024-03-02T05:45:20;99897.13;;;5.77;100.00
74065;BME280;62421;51.412;5.432;2024-03-02T05:47:45;99891.03;;;5.74;100.00
74065;BME280;62421;51.412;5.432;2024-03-02T05:50:11;99897.59;;;5.69;100.00
74065;BME280;62421;51.412;5.432;2024-03-02T05:52:36;99894.28;;;5.65;100.00
74065;BME280;62421;51.412;5.432;2024-03-02T05:55:01;99898.00;;;5.63;100.00
74065;BME280;62421;51.412;5.432;2024-03-02T05:57:27;99905.16;;;5.62;100.00
74065;BME280;62421;51.412;5.432;2024-03-02T06:00:14;99902.47;;;5.62;100.00
74065;BME280;62421;51.412;5.432;2024-03-02T06:02:42;99902.25;;;5.65;100.00
74065;BME280;62421;51.412;5.432;2024-03-02T06:05:07;99904.94;;;5.65;100.00
74065;BME280;62421;51.412;5.432;2024-03-02T06:07:33;99898.97;;;5.62;100.00
74065;BME280;62421;51.412;5.432;2024-03-02T06:09:58;99907.53;;;5.52;100.00
74065;BME280;62421;51.412;5.432;2024-03-02T06:12:23;99916.19;;;5.42;100.00
74065;BME280;62421;51.412;5.432;2024-03-02T06:14:49;99917.63;;;5.33;100.00
74065;BME280;62421;51.412;5.432;2024-03-02T06:17:14;99905.75;;;5.24;100.00
74065;BME280;62421;51.412;5.432;2024-03-02T06:19:40;99919.38;;;5.20;100.00
74065;BME280;62421;51.412;5.432;2024-03-02T06:22:05;99926.13;;;5.11;100.00
74065;BME280;62421;51.412;5.432;2024-03-02T06:24:31;99926.41;;;5.06;100.00
74065;BME280;62421;51.412;5.432;2024-03-02T06:26:56;99925.66;;;5.04;100.00
74065;BME280;62421;51.412;5.432;2024-03-02T06:29:21;99925.84;;;5.01;100.00
74065;BME280;62421;51.412;5.432;2024-03-02T06:31:47;99922.50;;;4.98;100.00
74065;BME280;62421;51.412;5.432;2024-03-02T06:34:12;99916.34;;;4.97;100.00
74065;BME280;62421;51.412;5.432;2024-03-02T06:36:38;99927.91;;;4.96;100.00
74065;BME280;62421;51.412;5.432;2024-03-02T06:39:03;99928.00;;;4.95;100.00
74065;BME280;62421;51.412;5.432;2024-03-02T06:41:29;99928.00;;;4.95;100.00
74065;BME280;62421;51.412;5.432;2024-03-02T06:43:54;99943.88;;;4.96;100.00
74065;BME280;62421;51.412;5.432;2024-03-02T06:46:25;99934.00;;;4.98;100.00
74065;BME280;62421;51.412;5.432;2024-03-02T06:48:50;99943.44;;;5.04;100.00
74065;BME280;62421;51.412;5.432;2024-03-02T06:51:15;99944.94;;;5.08;100.00
74065;BME280;62421;51.412;5.432;2024-03-02T06:53:41;99960.63;;;5.12;100.00
74065;BME280;62421;51.412;5.432;2024-03-02T06:56:07;99953.28;;;5.16;100.00
74065;BME280;62421;51.412;5.432;2024-03-02T06:58:33;99951.31;;;5.20;100.00
74065;BME280;62421;51.412;5.432;2024-03-02T07:00:58;99966.97;;;5.24;100.00
74065;BME280;62421;51.412;5.432;2024-03-02T07:03:25;99957.09;;;5.26;100.00
74065;BME280;62421;51.412;5.432;2024-03-02T07:05:50;99971.25;;;5.27;100.00
74065;BME280;62421;51.412;5.432;2024-03-02T07:08:16;99969.34;;;5.29;100.00
74065;BME280;62421;51.412;5.432;2024-03-02T07:10:41;99957.69;;;5.31;100.00
74065;BME280;62421;51.412;5.432;2024-03-02T07:13:06;99955.97;;;5.30;100.00
74065;BME280;62421;51.412;5.432;2024-03-02T07:15:32;99968.34;;;5.31;100.00
74065;BME280;62421;51.412;5.432;2024-03-02T07:18:16;99960.22;;;5.33;100.00
74065;BME280;62421;51.412;5.432;2024-03-02T07:20:41;99971.00;;;5.31;100.00
74065;BME280;62421;51.412;5.432;2024-03-02T07:23:06;99978.03;;;5.32;100.00
74065;BME280;62421;51.412;5.432;2024-03-02T07:25:32;99974.59;;;5.30;100.00
74065;BME280;62421;51.412;5.432;2024-03-02T07:27:57;99975.56;;;5.29;100.00
74065;BME280;62421;51.412;5.432;2024-03-02T07:30:22;99974.69;;;5.29;100.00
74065;BME280;62421;51.412;5.432;2024-03-02T07:32:50;99971.16;;;5.28;100.00
74065;BME280;62421;51.412;5.432;2024-03-02T07:35:15;99981.06;;;5.26;100.00
74065;BME280;62421;51.412;5.432;2024-03-02T07:37:41;99977.63;;;5.24;100.00
74065;BME280;62421;51.412;5.432;2024-03-02T07:40:08;99983.25;;;5.20;100.00
74065;BME280;62421;51.412;5.432;2024-03-02T07:42:40;99977.25;;;5.16;100.00
74065;BME280;62421;51.412;5.432;2024-03-02T07:45:06;99980.03;;;5.15;100.00
74065;BME280;62421;51.412;5.432;2024-03-02T07:47:33;99977.34;;;5.15;100.00
74065;BME280;62421;51.412;5.432;2024-03-02T07:49:58;99984.66;;;5.11;100.00
74065;BME280;62421;51.412;5.432;2024-03-02T07:52:24;99983.91;;;5.09;100.00
74065;BME280;62421;51.412;5.432;2024-03-02T07:54:49;99987.31;;;5.11;100.00
74065;BME280;62421;51.412;5.432;2024-03-02T07:57:14;99982.97;;;5.10;100.00
74065;BME280;62421;51.412;5.432;2024-03-02T07:59:40;99980.31;;;5.10;100.00
74065;BME280;62421;51.412;5.432;2024-03-02T08:02:06;99990.06;;;5.09;100.00
74065;BME280;62421;51.412;5.432;2024-03-02T08:04:31;99982.00;;;5.11;100.00
74065;BME280;62421;51.412;5.432;2024-03-02T08:06:57;99986.28;;;5.13;100.00
74065;BME280;62421;51.412;5.432;2024-03-02T08:09:22;99979.13;;;5.14;100.00
74065;BME280;62421;51.412;5.432;2024-03-02T08:11:47;99986.94;;;5.17;100.00
74065;BME280;62421;51.412;5.432;2024-03-02T08:14:13;99992.06;;;5.20;100.00
74065;BME280;62421;51.412;5.432;2024-03-02T08:16:38;99993.59;;;5.24;100.00
74065;BME280;62421;51.412;5.432;2024-03-02T08:19:03;99986.22;;;5.29;100.00
74065;BME280;62421;51.412;5.432;2024-03-02T08:21:29;99985.84;;;5.36;100.00
74065;BME280;62421;51.412;5.432;2024-03-02T08:23:57;99972.13;;;5.42;100.00
74065;BME280;62421;51.412;5.432;2024-03-02T08:26:23;99977.06;;;5.48;100.00
74065;BME280;62421;51.412;5.432;2024-03-02T08:28:48;99981.06;;;5.55;100.00
74065;BME280;62421;51.412;5.432;2024-03-02T08:31:14;99979.81;;;5.61;100.00
74065;BME280;62421;51.412;5.432;2024-03-02T08:33:39;99992.66;;;5.68;100.00
74065;BME280;62421;51.412;5.432;2024-03-02T08:36:05;99988.63;;;5.75;100.00
74065;BME280;62421;51.412;5.432;2024-03-02T08:38:31;99992.59;;;5.83;100.00
74065;BME280;62421;51.412;5.432;2024-03-02T08:40:56;99993.09;;;5.89;100.00
74065;BME280;62421;51.412;5.432;2024-03-02T08:43:22;99989.25;;;5.93;100.00
74065;BME280;62421;51.412;5.432;2024-03-02T08:45:50;99991.69;;;5.98;100.00
74065;BME280;62421;51.412;5.432;2024-03-02T08:48:16;99985.84;;;6.06;100.00
74065;BME280;62421;51.412;5.432;2024-03-02T08:50:41;99985.22;;;6.15;100.00
74065;BME280;62421;51.412;5.432;2024-03-02T08:53:06;99992.94;;;6.20;100.00
74065;BME280;62421;51.412;5.432;2024-03-02T08:55:32;99997.00;;;6.25;100.00
74065;BME280;62421;51.412;5.432;2024-03-02T08:57:57;99989.59;;;6.30;100.00
74065;BME280;62421;51.412;5.432;2024-03-02T09:00:23;99992.69;;;6.37;100.00
74065;BME280;62421;51.412;5.432;2024-03-02T09:02:49;99991.41;;;6.43;100.00
74065;BME280;62421;51.412;5.432;2024-03-02T09:05:14;99992.84;;;6.48;100.00
74065;BME280;62421;51.412;5.432;2024-03-02T09:07:40;99999.66;;;6.52;100.00
74065;BME280;62421;51.412;5.432;2024-03-02T09:10:06;100000.34;;;6.56;100.00
74065;BME280;62421;51.412;5.432;2024-03-02T09:12:32;100006.28;;;6.60;100.00
74065;BME280;62421;51.412;5.432;2024-03-02T09:14:58;99992.66;;;6.64;100.00
74065;BME280;62421;51.412;5.432;2024-03-02T09:17:23;99995.88;;;6.69;100.00
74065;BME280;62421;51.412;5.432;2024-03-02T09:19:49;99992.91;;;6.74;100.00
74065;BME280;62421;51.412;5.432;2024-03-02T09:22:20;99995.03;;;6.82;100.00
74065;BME280;62421;51.412;5.432;2024-03-02T09:24:46;99997.94;;;6.91;100.00
74065;BME280;62421;51.412;5.432;2024-03-02T09:27:11;99985.03;;;6.98;100.00
74065;BME280;62421;51.412;5.432;2024-03-02T09:29:37;99986.19;;;7.07;100.00
74065;BME280;62421;51.412;5.432;2024-03-02T09:32:03;99989.31;;;7.13;100.00
74065;BME280;62421;51.412;5.432;2024-03-02T09:34:28;99999.47;;;7.21;100.00
74065;BME280;62421;51.412;5.432;2024-03-02T09:36:53;100001.72;;;7.27;100.00
74065;BME280;62421;51.412;5.432;2024-03-02T09:39:19;100000.41;;;7.33;100.00
74065;BME280;62421;51.412;5.432;2024-03-02T09:41:44;99986.53;;;7.41;100.00
74065;BME280;62421;51.412;5.432;2024-03-02T09:44:10;99992.19;;;7.49;100.00
74065;BME280;62421;51.412;5.432;2024-03-02T09:46:35;99990.69;;;7.57;100.00
74065;BME280;62421;51.412;5.432;2024-03-02T09:49:02;99979.75;;;7.61;100.00
74065;BME280;62421;51.412;5.432;2024-03-02T09:51:27;99984.56;;;7.68;100.00
74065;BME280;62421;51.412;5.432;2024-03-02T09:53:54;99994.16;;;7.84;100.00
74065;BME280;62421;51.412;5.432;2024-03-02T09:56:21;99992.63;;;7.92;100.00
74065;BME280;62421;51.412;5.432;2024-03-02T09:58:47;99979.16;;;7.94;100.00
74065;BME280;62421;51.412;5.432;2024-03-02T10:01:12;99997.13;;;7.92;100.00
74065;BME280;62421;51.412;5.432;2024-03-02T10:03:38;99975.00;;;7.90;100.00
74065;BME280;62421;51.412;5.432;2024-03-02T10:06:23;99983.22;;;7.87;100.00
74065;BME280;62421;51.412;5.432;2024-03-02T10:08:49;99976.34;;;7.95;100.00
74065;BME280;62421;51.412;5.432;2024-03-02T10:11:28;99974.72;;;8.06;100.00
74065;BME280;62421;51.412;5.432;2024-03-02T10:14:04;99965.16;;;8.14;100.00
74065;BME280;62421;51.412;5.432;2024-03-02T10:16:30;99971.75;;;8.21;100.00
74065;BME280;62421;51.412;5.432;2024-03-02T10:18:55;99963.19;;;8.29;100.00
74065;BME280;62421;51.412;5.432;2024-03-02T10:21:21;99975.25;;;8.35;97.07
74065;BME280;62421;51.412;5.432;2024-03-02T10:23:49;99964.41;;;8.36;97.20
74065;BME280;62421;51.412;5.432;2024-03-02T10:26:17;99963.56;;;8.36;100.00
74065;BME280;62421;51.412;5.432;2024-03-02T10:28:47;99963.03;;;8.44;100.00
74065;BME280;62421;51.412;5.432;2024-03-02T10:31:13;99964.38;;;8.49;100.00
74065;BME280;62421;51.412;5.432;2024-03-02T10:33:38;99972.78;;;8.56;100.00
74065;BME280;62421;51.412;5.432;2024-03-02T10:36:04;99961.41;;;8.65;95.61
74065;BME280;62421;51.412;5.432;2024-03-02T10:38:30;99967.25;;;8.70;98.31
74065;BME280;62421;51.412;5.432;2024-03-02T10:40:57;99956.94;;;8.77;96.72
74065;BME280;62421;51.412;5.432;2024-03-02T10:43:25;99961.47;;;8.88;97.48
74065;BME280;62421;51.412;5.432;2024-03-02T10:45:52;99964.53;;;8.94;95.06
74065;BME280;62421;51.412;5.432;2024-03-02T10:48:17;99953.34;;;9.00;94.72
74065;BME280;62421;51.412;5.432;2024-03-02T10:50:43;99947.41;;;9.08;95.74
74065;BME280;62421;51.412;5.432;2024-03-02T10:53:08;99947.75;;;9.15;97.31
74065;BME280;62421;51.412;5.432;2024-03-02T10:55:34;99939.25;;;9.21;95.84
74065;BME280;62421;51.412;5.432;2024-03-02T10:58:00;99945.56;;;9.31;98.69
74065;BME280;62421;51.412;5.432;2024-03-02T11:00:33;99935.00;;;9.41;97.31
74065;BME280;62421;51.412;5.432;2024-03-02T11:03:05;99928.88;;;9.50;92.81
74065;BME280;62421;51.412;5.432;2024-03-02T11:05:36;99937.53;;;9.54;89.95
74065;BME280;62421;51.412;5.432;2024-03-02T11:08:08;99928.78;;;9.52;92.83
74065;BME280;62421;51.412;5.432;2024-03-02T11:10:36;99933.13;;;9.53;93.99
74065;BME280;62421;51.412;5.432;2024-03-02T11:13:05;99924.03;;;9.55;94.33
74065;BME280;62421;51.412;5.432;2024-03-02T11:15:34;99922.53;;;9.62;92.35
74065;BME280;62421;51.412;5.432;2024-03-02T11:18:02;99931.31;;;9.64;94.55
74065;BME280;62421;51.412;5.432;2024-03-02T11:20:31;99926.56;;;9.68;92.90
74065;BME280;62421;51.412;5.432;2024-03-02T11:22:56;99926.78;;;9.76;91.28
74065;BME280;62421;51.412;5.432;2024-03-02T11:25:27;99932.00;;;9.89;93.34
74065;BME280;62421;51.412;5.432;2024-03-02T11:33:02;99926.66;;;10.21;87.91
74065;BME280;62421;51.412;5.432;2024-03-02T11:35:45;99932.28;;;10.30;89.17
74065;BME280;62421;51.412;5.432;2024-03-02T11:38:14;99926.78;;;10.31;84.66
74065;BME280;62421;51.412;5.432;2024-03-02T11:40:40;99930.44;;;10.30;84.61
74065;BME280;62421;51.412;5.432;2024-03-02T11:43:06;99920.69;;;10.29;83.72
74065;BME280;62421;51.412;5.432;2024-03-02T11:45:33;99912.72;;;10.28;84.22
74065;BME280;62421;51.412;5.432;2024-03-02T11:47:59;99914.56;;;10.27;86.29
74065;BME280;62421;51.412;5.432;2024-03-02T11:50:46;99912.72;;;10.28;88.55
74065;BME280;62421;51.412;5.432;2024-03-02T11:53:12;99908.84;;;10.32;84.83
74065;BME280;62421;51.412;5.432;2024-03-02T11:55:39;99901.28;;;10.37;85.04
74065;BME280;62421;51.412;5.432;2024-03-02T11:58:06;99889.28;;;10.41;86.92
74065;BME280;62421;51.412;5.432;2024-03-02T12:00:32;99890.72;;;10.45;85.65
74065;BME280;62421;51.412;5.432;2024-03-02T12:03:15;99880.72;;;10.47;88.71
74065;BME280;62421;51.412;5.432;2024-03-02T12:05:42;99886.81;;;10.49;82.04
74065;BME280;62421;51.412;5.432;2024-03-02T12:08:07;99874.59;;;10.56;81.38
74065;BME280;62421;51.412;5.432;2024-03-02T12:10:34;99880.72;;;10.68;82.72
74065;BME280;62421;51.412;5.432;2024-03-02T12:13:01;99866.78;;;10.74;82.59
74065;BME280;62421;51.412;5.432;2024-03-02T12:15:32;99868.66;;;10.83;82.17
74065;BME280;62421;51.412;5.432;2024-03-02T12:17:59;99864.00;;;10.85;81.27
74065;BME280;62421;51.412;5.432;2024-03-02T12:20:26;99846.44;;;10.81;83.94
74065;BME280;62421;51.412;5.432;2024-03-02T12:22:53;99835.59;;;10.83;84.29
74065;BME280;62421;51.412;5.432;2024-03-02T12:25:23;99842.81;;;10.92;83.84
74065;BME280;62421;51.412;5.432;2024-03-02T12:27:50;99842.88;;;11.02;83.08
74065;BME280;62421;51.412;5.432;2024-03-02T12:30:17;99841.63;;;11.06;83.26
74065;BME280;62421;51.412;5.432;2024-03-02T12:32:44;99828.94;;;11.18;81.51
74065;BME280;62421;51.412;5.432;2024-03-02T12:35:10;99836.03;;;11.28;81.04
74065;BME280;62421;51.412;5.432;2024-03-02T12:37:48;99835.66;;;11.43;84.23
74065;BME280;62421;51.412;5.432;2024-03-02T12:40:15;99840.78;;;11.56;80.57
74065;BME280;62421;51.412;5.432;2024-03-02T12:42:42;99836.38;;;11.55;80.20
74065;BME280;62421;51.412;5.432;2024-03-02T12:45:09;99829.16;;;11.45;79.14
74065;BME280;62421;51.412;5.432;2024-03-02T12:47:35;99815.84;;;11.44;80.64
74065;BME280;62421;51.412;5.432;2024-03-02T12:50:01;99828.75;;;11.50;80.39
74065;BME280;62421;51.412;5.432;2024-03-02T12:52:27;99819.53;;;11.53;79.57
74065;BME280;62421;51.412;5.432;2024-03-02T12:54:54;99826.09;;;11.60;78.26
74065;BME280;62421;51.412;5.432;2024-03-02T12:57:25;99823.81;;;11.65;79.87
74065;BME280;62421;51.412;5.432;2024-03-02T12:59:52;99808.81;;;11.72;78.90
74065;BME280;62421;51.412;5.432;2024-03-02T13:02:18;99805.31;;;11.81;77.47